createdAt,value
2022-12-28T00:00:57.866Z,99487.06
2022-12-28T00:03:29.073Z,99496.22
2022-12-28T00:05:58.355Z,99494.56
2022-12-28T00:08:27.502Z,99490.03
2022-12-28T00:11:07.865Z,99494.56
2022-12-28T00:13:39.984Z,99484.13
2022-12-28T00:16:14.600Z,99489.69
2022-12-28T00:18:43.951Z,99480.22
2022-12-28T00:21:12.999Z,99477.66
2022-12-28T00:23:42.421Z,99476.31
2022-12-28T00:26:14.322Z,99467.22
2022-12-28T00:28:43.826Z,99459.38
2022-12-28T00:31:14.862Z,99457.41
2022-12-28T00:33:44.319Z,99466.72
2022-12-28T00:36:16.117Z,99449.09
2022-12-28T00:38:46.221Z,99459.03
2022-12-28T00:41:15.529Z,99456.63
2022-12-28T00:43:46.205Z,99463.63
2022-12-28T00:46:17.929Z,99459.38
2022-12-28T00:48:47.093Z,99469.66
2022-12-28T00:51:19.243Z,99474.72
2022-12-28T00:53:48.467Z,99473.38
2022-12-28T00:56:20.802Z,99483.97
2022-12-28T00:58:50.931Z,99489.34
2022-12-28T01:01:24.776Z,99479.56
2022-12-28T01:03:56.443Z,99489.03
2022-12-28T01:06:28.264Z,99494.88
2022-12-28T01:08:57.531Z,99491.47
2022-12-28T01:11:31.703Z,99484.94
2022-12-28T01:14:02.908Z,99487.22
2022-12-28T01:16:36.062Z,99479.09
2022-12-28T01:19:08.194Z,99480.88
2022-12-28T01:21:37.886Z,99490.03
2022-12-28T01:24:08.771Z,99495.84
2022-12-28T01:26:38.058Z,99497.13
2022-12-28T01:29:07.618Z,99486.22
2022-12-28T01:31:38.240Z,99482.19
2022-12-28T01:34:07.402Z,99473.22
2022-12-28T01:36:38.473Z,99473.84
2022-12-28T01:39:08.489Z,99474.81
2022-12-28T01:41:41.074Z,99471.06
2022-12-28T01:44:44.472Z,99464.25
2022-12-28T01:47:23.441Z,99459.72
2022-12-28T01:50:01.647Z,99453.50
2022-12-28T01:52:37.512Z,99454.66
2022-12-28T01:55:13.030Z,99438.84
2022-12-28T01:57:47.655Z,99438.22
2022-12-28T02:00:19.051Z,99428.09
2022-12-28T02:02:56.071Z,99415.72
2022-12-28T02:05:30.122Z,99424.81
2022-12-28T02:08:05.649Z,99416.03
2022-12-28T02:10:41.064Z,99410.66
2022-12-28T02:13:17.268Z,99410.97
2022-12-28T02:15:49.036Z,99416.31
2022-12-28T02:18:22.211Z,99409.13
2022-12-28T02:21:22.491Z,99393.81
2022-12-28T02:24:36.178Z,99391.44
2022-12-28T02:27:16.349Z,99394.88
2022-12-28T02:30:06.187Z,99396.47
2022-12-28T02:32:56.468Z,99386.28
2022-12-28T02:35:35.465Z,99392.19
2022-12-28T02:38:12.481Z,99398.78
2022-12-28T02:40:48.248Z,99388.22
2022-12-28T02:43:17.686Z,99386.44
2022-12-28T02:46:06.562Z,99373.25
2022-12-28T02:49:00.573Z,99368.03
2022-12-28T02:51:56.781Z,99380.84
2022-12-28T02:55:11.589Z,99387.78
2022-12-28T02:58:17.872Z,99399.72
2022-12-28T03:01:01.891Z,99383.44
2022-12-28T03:03:40.596Z,99386.97
2022-12-28T03:06:35.293Z,99382.50
2022-12-28T03:09:17.544Z,99379.59
2022-12-28T03:11:55.564Z,99369.41
2022-12-28T03:14:36.503Z,99365.16
2022-12-28T03:17:25.828Z,99353.25
2022-12-28T03:20:18.285Z,99353.47
2022-12-28T03:23:05.658Z,99348.59
2022-12-28T03:25:59.010Z,99337.91
2022-12-28T03:28:53.788Z,99342.59
2022-12-28T03:31:26.191Z,99336.41
2022-12-28T03:34:07.742Z,99337.69
2022-12-28T03:36:49.405Z,99335.97
2022-12-28T03:39:32.803Z,99334.34
2022-12-28T03:42:30.576Z,99325.22
2022-12-28T03:45:08.037Z,99329.66
2022-12-28T03:47:41.253Z,99319.72
2022-12-28T03:50:13.151Z,99312.41
2022-12-28T03:52:42.542Z,99317.38
2022-12-28T03:55:14.992Z,99317.75
2022-12-28T03:57:44.809Z,99316.44
2022-12-28T04:00:21.164Z,99309.00
2022-12-28T04:02:52.846Z,99313.50
2022-12-28T04:05:25.806Z,99305.59
2022-12-28T04:07:55.427Z,99315.00
2022-12-28T04:10:25.545Z,99318.38
2022-12-28T04:12:57.675Z,99319.00
2022-12-28T04:16:00.758Z,99314.22
2022-12-28T04:18:32.716Z,99321.44
2022-12-28T04:21:03.738Z,99306.94
2022-12-28T04:23:33.578Z,99306.31
2022-12-28T04:26:18.094Z,99303.97
2022-12-28T04:28:48.888Z,99303.88
2022-12-28T04:31:25.126Z,99309.69
2022-12-28T04:34:14.900Z,99304.59
2022-12-28T04:36:53.916Z,99304.34
2022-12-28T04:39:24.784Z,99299.31
2022-12-28T04:41:53.860Z,99293.00
2022-12-28T04:44:23.000Z,99303.09
2022-12-28T04:46:52.117Z,99307.78
2022-12-28T04:49:21.259Z,99297.19
2022-12-28T04:51:52.069Z,99305.47
2022-12-28T04:54:21.629Z,99306.34
2022-12-28T04:56:50.808Z,99306.34
2022-12-28T04:59:20.126Z,99303.91
2022-12-28T05:01:49.370Z,99292.06
2022-12-28T05:04:18.493Z,99301.69
2022-12-28T05:06:47.665Z,99296.69
2022-12-28T05:09:20.696Z,99292.78
2022-12-28T05:11:49.944Z,99295.81
2022-12-28T05:14:19.082Z,99306.84
2022-12-28T05:16:52.285Z,99298.06
2022-12-28T05:19:21.433Z,99295.72
2022-12-28T05:21:50.623Z,99299.72
2022-12-28T05:24:21.153Z,99315.22
2022-12-28T05:26:50.243Z,99301.34
2022-12-28T05:29:19.546Z,99304.97
2022-12-28T05:31:48.796Z,99291.69
2022-12-28T05:34:17.863Z,99286.78
2022-12-28T05:36:46.945Z,99293.31
2022-12-28T05:39:16.198Z,99287.47
2022-12-28T05:41:47.266Z,99282.28
2022-12-28T05:44:16.575Z,99284.03
2022-12-28T05:46:45.836Z,99281.22
2022-12-28T05:49:15.066Z,99278.66
2022-12-28T05:51:44.321Z,99270.75
2022-12-28T05:54:13.450Z,99269.09
2022-12-28T05:56:42.677Z,99259.34
2022-12-28T05:59:13.735Z,99267.56
2022-12-28T06:01:46.084Z,99268.25
2022-12-28T06:04:17.977Z,99277.53
2022-12-28T06:06:48.575Z,99272.63
2022-12-28T06:09:18.540Z,99275.31
2022-12-28T06:11:48.102Z,99289.81
2022-12-28T06:14:18.678Z,99285.28
2022-12-28T06:16:47.837Z,99286.13
2022-12-28T06:19:18.283Z,99296.47
2022-12-28T06:21:47.889Z,99296.06
2022-12-28T06:24:19.082Z,99294.88
2022-12-28T06:26:48.493Z,99294.22
2022-12-28T06:29:19.283Z,99299.78
2022-12-28T06:31:51.234Z,99291.44
2022-12-28T06:34:20.477Z,99295.31
2022-12-28T06:36:52.674Z,99288.19
2022-12-28T06:39:21.727Z,99297.75
2022-12-28T06:41:51.242Z,99295.19
2022-12-28T06:44:21.730Z,99293.34
2022-12-28T06:46:50.904Z,99274.22
2022-12-28T06:49:20.240Z,99284.75
2022-12-28T06:51:49.490Z,99274.84
2022-12-28T06:54:18.547Z,99281.69
2022-12-28T06:56:47.862Z,99283.13
2022-12-28T06:59:16.994Z,99275.38
2022-12-28T07:01:47.742Z,99267.63
2022-12-28T07:04:17.375Z,99259.03
2022-12-28T07:06:46.607Z,99264.63
2022-12-28T07:09:17.288Z,99255.31
2022-12-28T07:11:47.212Z,99258.84
2022-12-28T07:14:16.448Z,99246.94
2022-12-28T07:16:45.540Z,99244.91
2022-12-28T07:19:16.244Z,99253.13
2022-12-28T07:21:45.345Z,99247.66
2022-12-28T07:24:14.852Z,99238.56
2022-12-28T07:26:44.701Z,99231.28
2022-12-28T07:29:13.849Z,99206.66
2022-12-28T07:31:45.643Z,99213.06
2022-12-28T07:34:17.127Z,99226.59
2022-12-28T07:36:46.346Z,99218.31
2022-12-28T07:39:15.599Z,99218.50
2022-12-28T07:41:44.743Z,99232.16
2022-12-28T07:44:13.816Z,99235.91
2022-12-28T07:46:43.819Z,99241.28
2022-12-28T07:49:13.084Z,99236.41
2022-12-28T07:51:43.674Z,99234.63
2022-12-28T07:54:13.248Z,99247.16
2022-12-28T07:59:13.365Z,99262.28
2022-12-28T08:01:42.580Z,99262.44
2022-12-28T08:04:16.056Z,99270.25
2022-12-28T08:06:47.885Z,99271.41
2022-12-28T08:09:17.303Z,99270.56
2022-12-28T08:11:49.987Z,99278.38
2022-12-28T08:14:19.406Z,99268.94
2022-12-28T08:16:48.627Z,99275.44
2022-12-28T08:19:18.026Z,99276.41
2022-12-28T08:21:48.687Z,99276.59
2022-12-28T08:24:20.443Z,99278.38
2022-12-28T08:26:50.886Z,99278.34
2022-12-28T08:29:23.059Z,99281.72
2022-12-28T08:31:52.989Z,99278.25
2022-12-28T08:34:26.841Z,99269.25
2022-12-28T08:36:58.212Z,99259.84
2022-12-28T08:39:27.632Z,99272.47
2022-12-28T08:41:57.383Z,99280.31
2022-12-28T08:44:26.661Z,99296.16
2022-12-28T08:46:58.195Z,99285.34
2022-12-28T08:49:27.483Z,99287.28
2022-12-28T08:51:58.370Z,99297.31
2022-12-28T08:54:27.477Z,99306.88
2022-12-28T08:56:56.629Z,99306.25
2022-12-28T08:59:25.819Z,99314.34
2022-12-28T09:01:55.166Z,99294.38
2022-12-28T09:04:24.406Z,99310.50
2022-12-28T09:06:53.722Z,99300.72
2022-12-28T09:09:24.463Z,99290.38
2022-12-28T09:11:53.524Z,99293.69
2022-12-28T09:14:24.517Z,99290.72
2022-12-28T09:16:54.972Z,99285.78
2022-12-28T09:19:24.774Z,99276.88
2022-12-28T09:21:56.423Z,99262.53
2022-12-28T09:24:27.646Z,99271.91
2022-12-28T09:27:02.475Z,99276.31
2022-12-28T09:29:31.705Z,99275.06
2022-12-28T09:32:01.980Z,99274.28
2022-12-28T09:34:36.621Z,99266.38
2022-12-28T09:37:07.876Z,99262.56
2022-12-28T09:39:38.480Z,99267.13
2022-12-28T09:42:15.893Z,99267.56
2022-12-28T09:44:56.697Z,99271.84
2022-12-28T09:47:41.154Z,99263.06
2022-12-28T09:50:33.041Z,99272.84
2022-12-28T09:53:26.795Z,99246.66
2022-12-28T09:56:04.098Z,99245.25
2022-12-28T09:58:35.213Z,99250.06
2022-12-28T10:01:09.124Z,99248.03
2022-12-28T10:03:41.542Z,99239.53
2022-12-28T10:06:15.255Z,99241.91
2022-12-28T10:08:49.205Z,99222.31
2022-12-28T10:11:22.767Z,99216.69
2022-12-28T10:13:58.434Z,99219.59
2022-12-28T10:16:33.771Z,99214.19
2022-12-28T10:19:03.663Z,99213.78
2022-12-28T10:21:34.949Z,99209.28
2022-12-28T10:27:03.676Z,99210.44
2022-12-28T10:29:35.651Z,99205.88
2022-12-28T10:32:09.526Z,99203.59
2022-12-28T10:34:54.221Z,99199.16
2022-12-28T10:37:27.233Z,99194.97
2022-12-28T10:40:04.290Z,99185.47
2022-12-28T10:42:40.498Z,99184.97
2022-12-28T10:45:20.610Z,99185.72
2022-12-28T10:47:53.424Z,99176.97
2022-12-28T10:50:48.514Z,99185.41
2022-12-28T10:53:30.701Z,99165.00
2022-12-28T10:56:18.103Z,99155.75
2022-12-28T10:58:50.849Z,99146.41
2022-12-28T11:01:26.936Z,99155.31
2022-12-28T11:04:06.539Z,99153.38
2022-12-28T11:06:37.933Z,99148.78
2022-12-28T11:09:17.480Z,99138.31
2022-12-28T11:11:49.214Z,99135.84
2022-12-28T11:14:31.953Z,99139.25
2022-12-28T11:17:17.592Z,99132.47
2022-12-28T11:19:48.196Z,99126.22
2022-12-28T11:22:23.644Z,99134.09
2022-12-28T11:24:52.966Z,99117.81
2022-12-28T11:27:25.096Z,99106.28
2022-12-28T11:29:57.466Z,99104.75
2022-12-28T11:32:32.349Z,99099.47
2022-12-28T11:35:02.513Z,99092.06
2022-12-28T11:37:31.776Z,99093.63
2022-12-28T11:40:02.063Z,99098.50
2022-12-28T11:42:56.513Z,99087.66
2022-12-28T11:45:56.341Z,99076.44
2022-12-28T11:48:47.728Z,99068.38
2022-12-28T11:51:19.508Z,99070.78
2022-12-28T11:53:59.160Z,99060.41
2022-12-28T11:56:50.383Z,99057.94
2022-12-28T11:59:26.264Z,99058.72
2022-12-28T12:01:59.276Z,99054.00
2022-12-28T12:04:41.791Z,99047.66
2022-12-28T12:07:48.622Z,99032.06
2022-12-28T12:10:37.193Z,99022.88
2022-12-28T12:13:44.424Z,99017.97
2022-12-28T12:16:27.917Z,99007.41
2022-12-28T12:19:03.143Z,99010.41
2022-12-28T12:21:37.535Z,98995.94
2022-12-28T12:24:27.078Z,98989.47
2022-12-28T12:27:06.074Z,98991.41
2022-12-28T12:29:42.482Z,98986.69
2022-12-28T12:32:22.441Z,98992.91
2022-12-28T12:34:56.111Z,98983.38
2022-12-28T12:37:48.307Z,98978.72
2022-12-28T12:40:57.915Z,98972.88
2022-12-28T12:43:57.787Z,98971.78
2022-12-28T12:47:17.120Z,98968.28
2022-12-28T12:50:16.522Z,98975.28
2022-12-28T12:53:06.134Z,98969.59
2022-12-28T12:55:57.819Z,98972.81
2022-12-28T12:58:34.768Z,98962.72
2022-12-28T13:01:29.439Z,98961.66
2022-12-28T13:04:06.806Z,98940.75
2022-12-28T13:06:41.658Z,98944.78
2022-12-28T13:09:18.246Z,98940.34
2022-12-28T13:11:48.449Z,98950.38
2022-12-28T13:14:20.976Z,98943.97
2022-12-28T13:16:54.578Z,98944.75
2022-12-28T13:19:26.527Z,98949.97
2022-12-28T13:21:59.239Z,98947.94
2022-12-28T13:24:30.816Z,98950.00
2022-12-28T13:27:02.664Z,98943.47
2022-12-28T13:29:40.650Z,98938.97
2022-12-28T13:32:26.270Z,98940.47
2022-12-28T13:34:55.326Z,98943.00
2022-12-28T13:37:26.140Z,98935.16
2022-12-28T13:40:11.317Z,98943.81
2022-12-28T13:42:52.677Z,98936.75
2022-12-28T13:45:23.154Z,98941.03
2022-12-28T13:47:54.559Z,98932.09
2022-12-28T13:50:28.009Z,98927.72
2022-12-28T13:53:03.915Z,98921.09
2022-12-28T13:55:38.752Z,98919.00
2022-12-28T13:58:13.327Z,98921.16
2022-12-28T14:00:45.580Z,98915.63
2022-12-28T14:03:16.714Z,98908.56
2022-12-28T14:05:51.834Z,98909.44
2022-12-28T14:08:23.704Z,98911.97
2022-12-28T14:10:53.534Z,98903.06
2022-12-28T14:13:23.938Z,98911.75
2022-12-28T14:15:56.265Z,98916.13
2022-12-28T14:18:26.979Z,98919.56
2022-12-28T14:20:58.106Z,98917.66
2022-12-28T14:23:30.858Z,98918.66
2022-12-28T14:26:03.804Z,98904.88
2022-12-28T14:28:38.114Z,98908.00
2022-12-28T14:31:10.156Z,98908.81
2022-12-28T14:33:51.699Z,98905.47
2022-12-28T14:36:24.552Z,98899.00
2022-12-28T14:39:04.249Z,98903.88
2022-12-28T14:41:40.520Z,98895.72
2022-12-28T14:44:17.755Z,98895.03
2022-12-28T14:46:47.115Z,98892.13
2022-12-28T14:49:37.771Z,98887.25
2022-12-28T14:52:43.449Z,98887.84
2022-12-28T14:55:33.384Z,98885.47
2022-12-28T14:58:09.006Z,98889.34
2022-12-28T15:00:38.721Z,98894.03
2022-12-28T15:03:23.910Z,98890.22
2022-12-28T15:05:55.096Z,98881.72
2022-12-28T15:08:27.425Z,98884.34
2022-12-28T15:11:00.185Z,98875.81
2022-12-28T15:13:29.410Z,98876.94
2022-12-28T15:16:01.138Z,98875.06
2022-12-28T15:18:31.715Z,98869.84
2022-12-28T15:21:06.592Z,98864.75
2022-12-28T15:23:36.005Z,98858.63
2022-12-28T15:26:09.648Z,98862.03
2022-12-28T15:28:41.877Z,98853.38
2022-12-28T15:31:14.284Z,98854.31
2022-12-28T15:33:43.632Z,98855.91
2022-12-28T15:36:17.881Z,98853.47
2022-12-28T15:38:48.722Z,98858.56
2022-12-28T15:41:37.637Z,98849.06
2022-12-28T15:44:07.264Z,98856.03
2022-12-28T15:46:36.609Z,98871.50
2022-12-28T15:49:07.175Z,98882.22
2022-12-28T15:51:36.493Z,98884.53
2022-12-28T15:54:09.681Z,98886.00
2022-12-28T15:56:42.783Z,98876.63
2022-12-28T15:59:15.297Z,98871.13
2022-12-28T16:01:46.183Z,98880.16
2022-12-28T16:04:16.144Z,98873.78
2022-12-28T16:06:45.969Z,98854.25
2022-12-28T16:09:16.000Z,98859.59
2022-12-28T16:11:54.695Z,98874.81
2022-12-28T16:14:24.544Z,98869.38
2022-12-28T16:16:53.894Z,98868.44
2022-12-28T16:19:23.392Z,98865.13
2022-12-28T16:21:53.264Z,98865.81
2022-12-28T16:24:22.556Z,98868.09
2022-12-28T16:26:53.040Z,98872.72
2022-12-28T16:29:22.497Z,98869.81
2022-12-28T16:31:53.067Z,98877.16
2022-12-28T16:34:24.451Z,98873.25
2022-12-28T16:36:57.201Z,98878.88
2022-12-28T16:39:28.681Z,98880.63
2022-12-28T16:41:59.595Z,98870.47
2022-12-28T16:44:29.550Z,98869.25
2022-12-28T16:46:59.729Z,98862.41
2022-12-28T16:49:30.771Z,98863.69
2022-12-28T16:52:00.651Z,98868.25
2022-12-28T16:54:29.907Z,98866.44
2022-12-28T16:57:00.464Z,98864.56
2022-12-28T16:59:30.885Z,98870.09
2022-12-28T17:02:00.497Z,98861.53
2022-12-28T17:04:29.687Z,98857.53
2022-12-28T17:06:59.696Z,98853.72
2022-12-28T17:09:28.895Z,98851.97
2022-12-28T17:12:00.613Z,98849.63
2022-12-28T17:14:37.470Z,98846.28
2022-12-28T17:17:07.688Z,98852.63
2022-12-28T17:19:37.189Z,98857.47
2022-12-28T17:22:06.512Z,98856.16
2022-12-28T17:24:35.734Z,98858.97
2022-12-28T17:27:09.054Z,98853.72
2022-12-28T17:29:41.029Z,98854.63
2022-12-28T17:32:10.260Z,98860.16
2022-12-28T17:34:39.467Z,98858.03
2022-12-28T17:37:08.665Z,98847.81
2022-12-28T17:39:40.660Z,98852.34
2022-12-28T17:42:12.030Z,98851.28
2022-12-28T17:44:41.357Z,98857.19
2022-12-28T17:47:10.526Z,98839.47
2022-12-28T17:49:39.889Z,98836.63
2022-12-28T17:52:10.014Z,98839.19
2022-12-28T17:54:39.225Z,98832.44
2022-12-28T17:57:09.920Z,98829.72
2022-12-28T17:59:40.632Z,98827.53
2022-12-28T18:02:12.894Z,98823.66
2022-12-28T18:04:42.575Z,98822.56
2022-12-28T18:07:12.238Z,98822.81
2022-12-28T18:09:41.510Z,98818.47
2022-12-28T18:12:10.931Z,98826.13
2022-12-28T18:14:41.795Z,98825.78
2022-12-28T18:17:11.111Z,98813.28
2022-12-28T18:19:40.521Z,98811.66
2022-12-28T18:22:09.934Z,98816.81
2022-12-28T18:24:39.607Z,98814.59
2022-12-28T18:27:08.984Z,98811.38
2022-12-28T18:29:43.130Z,98801.00
2022-12-28T18:32:12.706Z,98810.81
2022-12-28T18:34:42.475Z,98815.06
2022-12-28T18:37:11.820Z,98809.84
2022-12-28T18:39:41.054Z,98824.91
2022-12-28T18:42:10.526Z,98814.81
2022-12-28T18:44:41.585Z,98809.75
2022-12-28T18:47:13.320Z,98808.13
2022-12-28T18:49:47.099Z,98805.44
2022-12-28T18:52:18.587Z,98794.22
2022-12-28T18:54:49.044Z,98798.94
2022-12-28T18:57:18.862Z,98789.78
2022-12-28T18:59:50.599Z,98783.19
2022-12-28T19:02:22.488Z,98783.94
2022-12-28T19:04:56.731Z,98785.28
2022-12-28T19:07:26.668Z,98783.00
2022-12-28T19:10:16.045Z,98773.31
2022-12-28T19:12:45.536Z,98773.72
2022-12-28T19:15:16.229Z,98777.13
2022-12-28T19:17:45.735Z,98775.28
2022-12-28T19:20:15.631Z,98769.97
2022-12-28T19:22:45.203Z,98773.44
2022-12-28T19:25:14.623Z,98762.91
2022-12-28T19:27:44.281Z,98758.56
2022-12-28T19:30:16.255Z,98748.84
2022-12-28T19:32:45.519Z,98756.97
2022-12-28T19:35:15.956Z,98754.53
2022-12-28T19:37:46.352Z,98743.81
2022-12-28T19:40:16.204Z,98758.25
2022-12-28T19:42:45.691Z,98754.53
2022-12-28T19:45:18.352Z,98749.16
2022-12-28T19:47:47.660Z,98745.72
2022-12-28T19:50:17.557Z,98746.53
2022-12-28T19:52:47.341Z,98741.16
2022-12-28T19:55:16.899Z,98732.22
2022-12-28T19:57:46.435Z,98743.44
2022-12-28T20:00:18.559Z,98742.28
2022-12-28T20:02:50.479Z,98746.19
2022-12-28T20:05:19.888Z,98746.31
2022-12-28T20:07:49.712Z,98748.13
2022-12-28T20:10:19.162Z,98740.19
2022-12-28T20:12:48.729Z,98738.56
2022-12-28T20:15:22.806Z,98743.06
2022-12-28T20:17:52.307Z,98738.47
2022-12-28T20:20:26.731Z,98745.75
2022-12-28T20:22:57.001Z,98736.00
2022-12-28T20:25:26.272Z,98726.03
2022-12-28T20:27:59.299Z,98723.75
2022-12-28T20:30:32.287Z,98737.59
2022-12-28T20:33:01.851Z,98723.19
2022-12-28T20:35:31.159Z,98729.03
2022-12-28T20:38:03.425Z,98732.13
2022-12-28T20:40:33.031Z,98721.75
2022-12-28T20:43:19.697Z,98725.06
2022-12-28T20:45:54.187Z,98708.41
2022-12-28T20:48:23.771Z,98723.69
2022-12-28T20:50:57.481Z,98720.94
2022-12-28T20:53:27.447Z,98724.34
2022-12-28T20:56:06.735Z,98723.59
2022-12-28T20:58:36.577Z,98701.00
2022-12-28T21:01:09.632Z,98689.81
2022-12-28T21:03:39.176Z,98682.44
2022-12-28T21:06:09.285Z,98681.88
2022-12-28T21:08:38.584Z,98680.75
2022-12-28T21:11:08.114Z,98678.53
2022-12-28T21:13:43.759Z,98677.41
2022-12-28T21:16:19.102Z,98679.22
2022-12-28T21:18:50.643Z,98673.13
2022-12-28T21:21:22.199Z,98671.06
2022-12-28T21:23:52.536Z,98668.47
2022-12-28T21:26:22.911Z,98659.59
2022-12-28T21:28:52.322Z,98660.16
2022-12-28T21:31:23.114Z,98664.19
2022-12-28T21:33:56.045Z,98653.09
2022-12-28T21:36:25.281Z,98665.41
2022-12-28T21:38:54.516Z,98661.06
2022-12-28T21:41:37.957Z,98644.50
2022-12-28T21:44:08.388Z,98651.66
2022-12-28T21:46:39.096Z,98641.50
2022-12-28T21:49:08.895Z,98651.06
2022-12-28T21:51:39.247Z,98643.13
2022-12-28T21:54:12.396Z,98645.69
2022-12-28T21:56:42.888Z,98649.28
2022-12-28T21:59:13.939Z,98642.22
2022-12-28T22:02:02.285Z,98615.50
2022-12-28T22:04:49.161Z,98626.34
2022-12-28T22:07:21.163Z,98623.97
2022-12-28T22:10:07.839Z,98611.16
2022-12-28T22:12:37.568Z,98611.72
2022-12-28T22:15:28.761Z,98608.69
2022-12-28T22:18:02.100Z,98611.66
2022-12-28T22:20:33.438Z,98598.78
2022-12-28T22:23:03.500Z,98602.72
2022-12-28T22:25:32.976Z,98602.75
2022-12-28T22:28:02.754Z,98599.50
2022-12-28T22:30:34.085Z,98591.41
2022-12-28T22:33:05.403Z,98599.66
2022-12-28T22:35:35.017Z,98582.78
2022-12-28T22:38:04.214Z,98591.06
2022-12-28T22:40:33.345Z,98581.34
2022-12-28T22:43:03.239Z,98581.44
2022-12-28T22:45:32.559Z,98583.72
2022-12-28T22:48:01.815Z,98583.91
2022-12-28T22:50:32.927Z,98581.00
2022-12-28T22:53:06.296Z,98578.19
2022-12-28T22:55:35.563Z,98569.81
2022-12-28T22:58:04.715Z,98575.81
2022-12-28T23:00:33.944Z,98582.00
2022-12-28T23:03:03.318Z,98577.13
2022-12-28T23:05:36.604Z,98584.25
2022-12-28T23:08:07.358Z,98576.81
2022-12-28T23:10:36.611Z,98575.19
2022-12-28T23:13:05.755Z,98582.34
2022-12-28T23:15:33.820Z,98584.44
2022-12-28T23:18:23.338Z,98574.50
2022-12-28T23:21:11.453Z,98562.53
2022-12-28T23:23:57.950Z,98571.66
2022-12-28T23:26:44.807Z,98565.28
2022-12-28T23:29:13.964Z,98560.72
2022-12-28T23:31:43.212Z,98561.13
2022-12-28T23:34:12.359Z,98561.13
2022-12-28T23:36:42.983Z,98564.63
2022-12-28T23:39:12.303Z,98557.88
2022-12-28T23:41:50.385Z,98544.38
2022-12-28T23:44:21.990Z,98533.50
2022-12-28T23:46:58.694Z,98541.28
2022-12-28T23:49:28.714Z,98518.50
2022-12-28T23:51:59.369Z,98524.19
2022-12-28T23:54:28.567Z,98525.84
2022-12-28T23:56:57.758Z,98531.53
2022-12-28T23:59:27.041Z,98527.22
